createdAt,value
2018-05-24T00:02:27.384Z,17.80
2018-05-24T00:04:54.909Z,17.80
2018-05-24T00:07:22.436Z,17.90
2018-05-24T00:09:49.960Z,17.80
2018-05-24T00:12:17.480Z,17.70
2018-05-24T00:14:44.999Z,17.70
2018-05-24T00:17:12.522Z,17.70
2018-05-24T00:19:40.040Z,17.70
2018-05-24T00:22:07.580Z,17.70
2018-05-24T00:24:35.104Z,17.60
2018-05-24T00:27:02.650Z,17.60
2018-05-24T00:29:30.168Z,17.60
2018-05-24T00:31:57.721Z,17.60
2018-05-24T00:34:25.241Z,17.60
2018-05-24T00:36:52.782Z,17.60
2018-05-24T00:39:20.300Z,17.60
2018-05-24T00:41:47.838Z,17.50
2018-05-24T00:44:15.363Z,17.50
2018-05-24T00:46:42.885Z,17.60
2018-05-24T00:49:10.403Z,17.60
2018-05-24T00:51:37.933Z,17.50
2018-05-24T00:54:05.447Z,17.50
2018-05-24T00:56:32.972Z,17.50
2018-05-24T00:59:00.483Z,17.40
2018-05-24T01:01:28.008Z,17.40
2018-05-24T01:03:55.541Z,17.40
2018-05-24T01:06:23.060Z,17.40
2018-05-24T01:08:50.582Z,17.40
2018-05-24T01:11:18.105Z,17.40
2018-05-24T01:13:45.615Z,17.30
2018-05-24T01:16:13.127Z,17.30
2018-05-24T01:18:40.654Z,17.20
2018-05-24T01:21:08.174Z,17.20
2018-05-24T01:23:35.693Z,17.30
2018-05-24T01:26:03.213Z,17.30
2018-05-24T01:28:30.735Z,17.20
2018-05-24T01:30:58.253Z,17.30
2018-05-24T01:33:25.774Z,17.30
2018-05-24T01:35:53.286Z,17.30
2018-05-24T01:38:20.803Z,17.30
2018-05-24T01:40:48.327Z,17.30
2018-05-24T01:43:15.843Z,17.30
2018-05-24T01:45:44.129Z,17.40
2018-05-24T01:48:11.643Z,17.30
2018-05-24T01:50:39.158Z,17.30
2018-05-24T01:53:06.683Z,17.30
2018-05-24T01:55:34.208Z,17.30
2018-05-24T01:58:01.738Z,17.40
2018-05-24T02:00:29.267Z,17.40
2018-05-24T02:02:56.803Z,17.40
2018-05-24T02:05:24.327Z,17.40
2018-05-24T02:07:51.872Z,17.40
2018-05-24T02:10:19.391Z,17.40
2018-05-24T02:12:46.921Z,17.40
2018-05-24T02:15:14.434Z,17.40
2018-05-24T02:17:41.968Z,17.40
2018-05-24T02:20:09.487Z,17.40
2018-05-24T02:22:37.011Z,17.40
2018-05-24T02:25:04.540Z,17.40
2018-05-24T02:27:32.052Z,17.40
2018-05-24T02:29:59.585Z,17.40
2018-05-24T02:32:27.100Z,17.30
2018-05-24T02:34:54.625Z,17.30
2018-05-24T02:37:22.908Z,17.20
2018-05-24T02:39:50.432Z,17.20
2018-05-24T02:42:17.947Z,17.20
2018-05-24T02:44:45.465Z,17.20
2018-05-24T02:47:12.973Z,17.10
2018-05-24T02:49:40.503Z,17.10
2018-05-24T02:52:08.022Z,17.20
2018-05-24T02:54:35.531Z,17.20
2018-05-24T02:57:03.059Z,17.20
2018-05-24T02:59:30.577Z,17.20
2018-05-24T03:01:58.136Z,17.20
2018-05-24T03:04:25.660Z,17.20
2018-05-24T03:06:53.172Z,17.20
2018-05-24T03:09:21.457Z,17.20
2018-05-24T03:11:48.982Z,17.20
2018-05-24T03:14:16.574Z,17.20
2018-05-24T03:16:44.032Z,17.20
2018-05-24T03:19:11.542Z,17.20
2018-05-24T03:21:39.060Z,17.10
2018-05-24T03:24:06.583Z,17.10
2018-05-24T03:26:34.113Z,17.10
2018-05-24T03:29:01.633Z,17.10
2018-05-24T03:31:29.155Z,17.10
2018-05-24T03:33:56.667Z,17.10
2018-05-24T03:36:24.181Z,17.10
2018-05-24T03:38:51.703Z,17.00
2018-05-24T03:41:19.224Z,17.10
2018-05-24T03:43:46.773Z,17.10
2018-05-24T03:46:14.295Z,17.10
2018-05-24T03:48:41.832Z,17.10
2018-05-24T03:51:09.353Z,17.10
2018-05-24T03:53:36.890Z,17.10
2018-05-24T03:56:04.419Z,17.20
2018-05-24T03:58:31.931Z,17.20
2018-05-24T04:01:11.051Z,17.20
2018-05-24T04:03:46.542Z,17.20
2018-05-24T04:06:15.548Z,17.20
2018-05-24T04:08:43.064Z,17.30
2018-05-24T04:11:10.579Z,17.30
2018-05-24T04:13:38.097Z,17.30
2018-05-24T04:16:05.629Z,17.30
2018-05-24T04:18:33.154Z,17.30
2018-05-24T04:21:00.671Z,17.40
2018-05-24T04:23:28.180Z,17.40
2018-05-24T04:25:55.704Z,17.30
2018-05-24T04:28:23.259Z,17.30
2018-05-24T04:30:50.782Z,17.30
2018-05-24T04:33:18.292Z,17.30
2018-05-24T04:35:45.803Z,17.40
2018-05-24T04:38:13.325Z,17.40
2018-05-24T04:40:40.864Z,17.40
2018-05-24T04:43:08.375Z,17.40
2018-05-24T04:45:35.962Z,17.40
2018-05-24T04:48:03.419Z,17.40
2018-05-24T04:50:30.939Z,17.40
2018-05-24T04:52:59.227Z,17.30
2018-05-24T04:55:26.799Z,17.30
2018-05-24T04:57:54.322Z,17.40
2018-05-24T05:00:21.835Z,17.50
2018-05-24T05:02:49.352Z,17.60
2018-05-24T05:05:16.884Z,17.50
2018-05-24T05:07:44.405Z,17.50
2018-05-24T05:10:11.926Z,17.50
2018-05-24T05:12:39.448Z,17.60
2018-05-24T05:15:07.003Z,17.50
2018-05-24T05:17:34.522Z,17.50
2018-05-24T05:20:02.039Z,17.50
2018-05-24T05:22:29.622Z,17.50
2018-05-24T05:24:57.154Z,17.60
2018-05-24T05:27:24.672Z,17.60
2018-05-24T05:29:52.196Z,17.60
2018-05-24T05:32:19.723Z,17.70
2018-05-24T05:34:47.242Z,17.80
2018-05-24T05:37:15.519Z,18.00
2018-05-24T05:39:43.123Z,18.00
2018-05-24T05:42:10.639Z,18.00
2018-05-24T05:44:38.951Z,18.30
2018-05-24T05:47:06.472Z,18.30
2018-05-24T05:49:34.752Z,18.70
2018-05-24T05:52:02.358Z,18.70
2018-05-24T05:54:29.807Z,18.90
2018-05-24T05:56:57.333Z,19.20
2018-05-24T05:59:24.847Z,19.10
2018-05-24T06:01:52.400Z,19.20
2018-05-24T06:04:19.899Z,19.20
2018-05-24T06:06:47.460Z,19.20
2018-05-24T06:09:14.990Z,19.60
2018-05-24T06:11:42.507Z,20.10
2018-05-24T06:14:10.030Z,20.90
2018-05-24T06:16:37.569Z,21.00
2018-05-24T06:19:05.107Z,21.50
2018-05-24T06:21:32.644Z,21.70
2018-05-24T06:24:00.164Z,21.40
2018-05-24T06:26:27.675Z,21.20
2018-05-24T06:28:55.222Z,20.90
2018-05-24T06:31:22.762Z,20.60
2018-05-24T06:33:50.284Z,20.50
2018-05-24T06:36:17.808Z,20.20
2018-05-24T06:38:45.331Z,20.20
2018-05-24T06:41:12.852Z,20.50
2018-05-24T06:43:40.360Z,21.10
2018-05-24T06:46:07.875Z,21.90
2018-05-24T06:48:35.387Z,22.50
2018-05-24T06:51:02.895Z,22.80
2018-05-24T06:53:30.406Z,22.40
2018-05-24T06:55:58.684Z,23.40
2018-05-24T06:58:26.202Z,23.40
2018-05-24T07:00:53.715Z,25.40
2018-05-24T07:03:21.228Z,26.10
2018-05-24T07:05:48.822Z,25.90
2018-05-24T07:08:16.283Z,25.90
2018-05-24T07:10:44.588Z,25.70
2018-05-24T07:13:12.110Z,25.70
2018-05-24T07:15:39.619Z,26.60
2018-05-24T07:18:07.150Z,27.10
2018-05-24T07:20:35.457Z,26.80
2018-05-24T07:23:03.112Z,26.80
2018-05-24T07:25:30.636Z,26.70
2018-05-24T07:27:58.154Z,26.00
2018-05-24T07:30:25.697Z,25.70
2018-05-24T07:32:53.219Z,25.30
2018-05-24T07:35:20.739Z,25.20
2018-05-24T07:37:48.267Z,24.60
2018-05-24T07:40:15.783Z,24.50
2018-05-24T07:42:43.314Z,24.70
2018-05-24T07:45:10.906Z,25.40
2018-05-24T07:47:38.365Z,25.80
2018-05-24T07:50:05.895Z,25.40
2018-05-24T07:52:33.419Z,24.90
2018-05-24T07:55:00.942Z,24.90
2018-05-24T07:57:28.467Z,25.90
2018-05-24T07:59:55.997Z,25.50
2018-05-24T08:02:23.524Z,25.40
2018-05-24T08:04:51.089Z,24.80
2018-05-24T08:07:18.627Z,25.70
2018-05-24T08:09:46.191Z,27.90
2018-05-24T08:12:13.699Z,29.50
2018-05-24T08:14:41.292Z,30.70
2018-05-24T08:17:09.520Z,32.30
2018-05-24T08:19:37.038Z,32.30
2018-05-24T08:22:04.552Z,32.50
2018-05-24T08:24:32.076Z,32.30
2018-05-24T08:26:59.600Z,32.30
2018-05-24T08:29:27.120Z,33.30
2018-05-24T08:31:54.632Z,33.10
2018-05-24T08:34:22.151Z,34.40
2018-05-24T08:36:49.667Z,33.30
2018-05-24T08:39:17.180Z,32.80
2018-05-24T08:41:44.787Z,33.00
2018-05-24T08:44:13.005Z,32.20
2018-05-24T08:46:40.531Z,32.10
2018-05-24T08:49:08.035Z,33.10
2018-05-24T08:51:35.555Z,32.70
2018-05-24T08:54:03.075Z,33.60
2018-05-24T08:56:30.610Z,33.20
2018-05-24T08:58:58.136Z,33.50
2018-05-24T09:01:25.702Z,32.80
2018-05-24T09:03:53.211Z,32.50
2018-05-24T09:06:20.727Z,32.00
2018-05-24T09:08:48.242Z,31.40
2018-05-24T09:11:15.756Z,30.50
2018-05-24T09:13:44.044Z,29.50
2018-05-24T09:16:11.562Z,29.50
2018-05-24T09:18:39.080Z,29.20
2018-05-24T09:21:06.615Z,28.70
2018-05-24T09:23:34.899Z,28.70
2018-05-24T09:26:02.412Z,28.70
2018-05-24T09:28:29.939Z,28.40
2018-05-24T09:30:57.462Z,28.40
2018-05-24T09:33:25.739Z,27.90
2018-05-24T09:35:53.272Z,27.90
2018-05-24T09:38:20.796Z,27.70
2018-05-24T09:40:48.318Z,27.50
2018-05-24T09:43:16.602Z,27.00
2018-05-24T09:45:44.113Z,26.90
2018-05-24T09:48:11.645Z,26.90
2018-05-24T09:50:39.168Z,26.80
2018-05-24T09:53:06.676Z,26.80
2018-05-24T09:55:34.191Z,27.00
2018-05-24T09:58:01.699Z,27.30
2018-05-24T10:00:29.215Z,27.30
2018-05-24T10:02:56.739Z,27.40
2018-05-24T10:05:24.268Z,27.20
2018-05-24T10:07:51.780Z,27.20
2018-05-24T10:10:19.307Z,27.10
2018-05-24T10:12:46.824Z,27.00
2018-05-24T10:15:15.107Z,26.70
2018-05-24T10:17:42.637Z,26.70
2018-05-24T10:20:10.162Z,26.80
2018-05-24T10:22:37.672Z,26.90
2018-05-24T10:25:05.943Z,27.00
2018-05-24T10:27:33.460Z,26.90
2018-05-24T10:30:00.980Z,26.50
2018-05-24T10:32:28.529Z,26.60
2018-05-24T10:34:56.817Z,25.70
2018-05-24T10:37:24.343Z,25.70
2018-05-24T10:39:51.861Z,25.50
2018-05-24T10:42:19.411Z,24.70
2018-05-24T10:44:46.948Z,24.60
2018-05-24T10:47:15.232Z,24.60
2018-05-24T10:49:42.753Z,24.60
2018-05-24T10:52:10.272Z,24.70
2018-05-24T10:54:37.788Z,24.80
2018-05-24T10:57:05.322Z,24.80
2018-05-24T10:59:32.946Z,25.00
2018-05-24T11:02:00.387Z,25.40
2018-05-24T11:04:27.912Z,25.70
2018-05-24T11:06:55.439Z,25.40
2018-05-24T11:09:22.980Z,25.50
2018-05-24T11:11:50.499Z,25.70
2018-05-24T11:14:18.016Z,25.30
2018-05-24T11:16:45.535Z,24.90
2018-05-24T11:19:13.067Z,25.20
2018-05-24T11:21:40.589Z,25.30
2018-05-24T11:24:08.117Z,25.20
2018-05-24T11:26:35.643Z,25.20
2018-05-24T11:29:03.160Z,25.40
2018-05-24T11:31:30.687Z,25.20
2018-05-24T11:33:58.220Z,25.20
2018-05-24T11:36:25.746Z,24.90
2018-05-24T11:38:53.263Z,24.80
2018-05-24T11:41:20.789Z,24.90
2018-05-24T11:43:48.311Z,24.90
2018-05-24T11:46:15.823Z,24.70
2018-05-24T11:48:43.343Z,24.30
2018-05-24T11:51:10.855Z,24.10
2018-05-24T11:53:38.380Z,23.80
2018-05-24T11:56:05.904Z,23.70
2018-05-24T11:58:33.419Z,23.80
2018-05-24T12:01:00.936Z,23.70
2018-05-24T12:03:28.475Z,23.70
2018-05-24T12:05:55.991Z,23.50
2018-05-24T12:08:23.511Z,23.40
2018-05-24T12:10:51.795Z,23.30
2018-05-24T12:13:19.312Z,23.30
2018-05-24T12:15:46.839Z,23.50
2018-05-24T12:18:14.372Z,23.60
2018-05-24T12:20:41.895Z,23.60
2018-05-24T12:23:09.421Z,23.50
2018-05-24T12:25:36.940Z,23.60
2018-05-24T12:28:04.460Z,23.30
2018-05-24T12:30:31.980Z,23.40
2018-05-24T12:32:59.495Z,23.40
2018-05-24T12:35:27.065Z,23.40
2018-05-24T12:37:54.555Z,23.40
2018-05-24T12:40:22.075Z,23.40
2018-05-24T12:42:49.597Z,23.20
2018-05-24T12:45:17.107Z,23.30
2018-05-24T12:47:44.637Z,23.30
2018-05-24T12:50:12.159Z,23.20
2018-05-24T12:52:39.694Z,23.20
2018-05-24T12:55:07.447Z,22.90
2018-05-24T12:57:34.974Z,22.60
2018-05-24T13:00:02.489Z,22.50
2018-05-24T13:02:30.007Z,22.40
2018-05-24T13:04:57.528Z,22.50
2018-05-24T13:07:25.059Z,22.30
2018-05-24T13:09:53.415Z,22.10
2018-05-24T13:12:20.880Z,22.10
2018-05-24T13:14:48.392Z,22.30
2018-05-24T13:17:15.909Z,22.10
2018-05-24T13:19:44.195Z,22.20
2018-05-24T13:22:11.938Z,22.20
2018-05-24T13:24:39.465Z,22.10
2018-05-24T13:27:06.981Z,22.30
2018-05-24T13:29:34.494Z,22.40
2018-05-24T13:32:02.007Z,22.40
2018-05-24T13:34:29.580Z,22.20
2018-05-24T13:36:57.072Z,22.40
2018-05-24T13:39:24.595Z,22.40
2018-05-24T13:41:52.112Z,22.30
2018-05-24T13:44:19.632Z,22.20
2018-05-24T13:46:47.147Z,22.00
2018-05-24T13:49:15.436Z,21.60
2018-05-24T13:51:43.722Z,21.60
2018-05-24T13:54:11.275Z,21.60
2018-05-24T13:56:38.792Z,21.60
2018-05-24T13:59:06.315Z,21.60
2018-05-24T14:01:33.869Z,21.60
2018-05-24T14:04:01.379Z,21.50
2018-05-24T14:06:28.892Z,21.40
2018-05-24T14:08:56.419Z,21.30
2018-05-24T14:11:23.940Z,21.40
2018-05-24T14:13:51.453Z,21.40
2018-05-24T14:16:18.975Z,21.30
2018-05-24T14:18:46.493Z,21.50
2018-05-24T14:21:14.028Z,21.30
2018-05-24T14:23:41.547Z,21.50
2018-05-24T14:26:09.127Z,21.50
2018-05-24T14:28:36.633Z,21.30
2018-05-24T14:31:04.160Z,21.30
2018-05-24T14:33:31.683Z,21.20
2018-05-24T14:35:59.214Z,21.30
2018-05-24T14:38:26.726Z,21.40
2018-05-24T14:40:54.253Z,21.30
2018-05-24T14:43:21.776Z,21.00
2018-05-24T14:45:49.299Z,21.00
2018-05-24T14:48:16.827Z,21.10
2018-05-24T14:50:44.343Z,21.10
2018-05-24T14:53:11.854Z,21.00
2018-05-24T14:55:39.376Z,21.00
2018-05-24T14:58:07.671Z,21.10
2018-05-24T15:00:35.191Z,21.10
2018-05-24T15:03:02.715Z,21.00
2018-05-24T15:05:30.277Z,20.90
2018-05-24T15:07:57.786Z,20.80
2018-05-24T15:10:26.073Z,20.50
2018-05-24T15:12:53.596Z,20.60
2018-05-24T15:15:21.115Z,20.70
2018-05-24T15:17:48.639Z,20.60
2018-05-24T15:20:16.181Z,20.60
2018-05-24T15:22:43.704Z,20.60
2018-05-24T15:25:11.228Z,20.70
2018-05-24T15:27:38.750Z,20.60
2018-05-24T15:30:06.262Z,20.80
2018-05-24T15:32:33.797Z,20.80
2018-05-24T15:35:02.105Z,20.70
2018-05-24T15:37:29.627Z,20.70
2018-05-24T15:39:57.151Z,20.50
2018-05-24T15:42:24.667Z,20.60
2018-05-24T15:44:52.956Z,20.90
2018-05-24T15:47:20.475Z,20.90
2018-05-24T15:49:48.016Z,20.90
2018-05-24T15:52:15.539Z,21.10
2018-05-24T15:54:43.068Z,21.10
2018-05-24T15:57:11.359Z,21.20
2018-05-24T15:59:38.957Z,21.20
2018-05-24T16:02:06.476Z,21.30
2018-05-24T16:04:34.000Z,21.20
2018-05-24T16:07:01.522Z,21.20
2018-05-24T16:09:29.039Z,21.20
2018-05-24T16:11:56.571Z,21.30
2018-05-24T16:14:24.104Z,21.20
2018-05-24T16:16:51.624Z,21.30
2018-05-24T16:19:19.145Z,21.10
2018-05-24T16:21:46.668Z,21.30
2018-05-24T16:24:14.200Z,21.50
2018-05-24T16:26:41.726Z,21.40
2018-05-24T16:29:09.242Z,21.40
2018-05-24T16:31:36.767Z,21.40
2018-05-24T16:34:04.290Z,21.30
2018-05-24T16:36:31.815Z,21.20
2018-05-24T16:39:00.105Z,21.20
2018-05-24T16:41:27.641Z,21.20
2018-05-24T16:43:55.167Z,21.10
2018-05-24T16:46:25.979Z,21.00
2018-05-24T16:48:53.494Z,21.00
2018-05-24T16:51:21.033Z,20.90
2018-05-24T16:53:48.562Z,20.90
2018-05-24T16:56:16.094Z,20.90
2018-05-24T16:58:43.623Z,20.90
2018-05-24T17:01:11.165Z,20.90
2018-05-24T17:03:38.703Z,20.90
2018-05-24T17:06:06.228Z,21.00
2018-05-24T17:08:33.742Z,21.10
2018-05-24T17:11:01.267Z,21.10
2018-05-24T17:13:28.792Z,21.20
2018-05-24T17:15:56.322Z,21.00
2018-05-24T17:18:23.846Z,21.10
2018-05-24T17:20:51.375Z,21.10
2018-05-24T17:23:18.951Z,21.00
2018-05-24T17:25:46.475Z,21.10
2018-05-24T17:28:14.000Z,21.20
2018-05-24T17:30:41.520Z,21.20
2018-05-24T17:33:09.808Z,21.10
2018-05-24T17:35:37.329Z,21.10
2018-05-24T17:38:04.859Z,21.00
2018-05-24T17:40:32.382Z,21.00
2018-05-24T17:42:59.906Z,21.00
2018-05-24T17:45:27.432Z,21.00
2018-05-24T17:47:54.960Z,20.90
2018-05-24T17:50:23.247Z,20.90
2018-05-24T17:52:51.539Z,20.90
2018-05-24T17:55:19.063Z,20.80
2018-05-24T17:57:46.588Z,20.80
2018-05-24T18:00:14.107Z,20.80
2018-05-24T18:02:42.391Z,20.80
2018-05-24T18:05:09.911Z,20.70
2018-05-24T18:07:37.436Z,20.70
2018-05-24T18:10:04.956Z,20.80
2018-05-24T18:12:32.511Z,20.70
2018-05-24T19:36:57.819Z,20.60
2018-05-24T19:39:26.116Z,20.00
2018-05-24T19:41:53.645Z,20.00
2018-05-24T19:44:21.926Z,20.00
2018-05-24T19:46:50.214Z,20.00
2018-05-24T19:49:17.739Z,20.00
2018-05-24T19:51:45.263Z,20.00
2018-05-24T19:54:12.787Z,20.00
2018-05-24T19:56:40.306Z,20.00
2018-05-24T19:59:07.829Z,20.00
2018-05-24T20:01:35.343Z,20.00
2018-05-24T20:04:02.864Z,20.00
2018-05-24T20:06:30.379Z,20.00
2018-05-24T20:08:58.676Z,19.90
2018-05-24T20:11:26.203Z,19.90
2018-05-24T20:13:53.723Z,19.90
2018-05-24T20:16:21.243Z,19.90
2018-05-24T20:18:48.783Z,19.90
2018-05-24T20:21:16.307Z,19.90
2018-05-24T20:23:43.861Z,19.80
2018-05-24T20:26:11.402Z,19.60
2018-05-24T20:28:38.955Z,19.60
2018-05-24T20:31:06.484Z,19.50
2018-05-24T20:33:34.039Z,19.50
2018-05-24T20:36:01.567Z,19.40
2018-05-24T20:38:29.103Z,19.40
2018-05-24T20:40:56.630Z,19.40
2018-05-24T20:43:24.167Z,19.30
2018-05-24T20:45:51.698Z,19.40
2018-05-24T20:48:19.248Z,19.40
2018-05-24T20:50:46.763Z,19.30
2018-05-24T20:53:14.279Z,19.30
2018-05-24T20:55:41.796Z,19.30
2018-05-24T20:58:09.319Z,19.30
2018-05-24T21:00:36.847Z,19.30
2018-05-24T21:03:04.365Z,19.30
2018-05-24T21:05:31.886Z,19.20
2018-05-24T21:07:59.409Z,19.20
2018-05-24T21:10:26.952Z,19.20
2018-05-24T21:12:54.475Z,19.10
2018-05-24T21:15:22.005Z,18.90
2018-05-24T21:17:49.519Z,18.80
2018-05-24T21:20:17.052Z,18.80
2018-05-24T21:22:44.571Z,18.60
2018-05-24T21:25:12.102Z,18.40
2018-05-24T21:27:39.623Z,18.40
2018-05-24T21:30:07.148Z,18.50
2018-05-24T21:32:34.678Z,18.50
2018-05-24T21:35:02.194Z,18.50
2018-05-24T21:37:29.714Z,18.50
2018-05-24T21:39:57.232Z,18.40
2018-05-24T21:42:24.755Z,18.40
2018-05-24T21:44:52.309Z,18.40
2018-05-24T21:47:19.815Z,18.40
2018-05-24T21:49:47.339Z,18.40
2018-05-24T21:52:15.167Z,18.40
2018-05-24T21:54:42.713Z,18.40
2018-05-24T21:57:10.236Z,18.40
2018-05-24T21:59:37.779Z,18.40
2018-05-24T22:02:05.358Z,18.40
2018-05-24T22:04:32.876Z,18.40
2018-05-24T22:07:01.159Z,18.30
2018-05-24T22:09:28.723Z,18.30
2018-05-24T22:11:56.240Z,18.30
2018-05-24T22:14:23.784Z,18.30
2018-05-24T22:16:51.312Z,18.30
2018-05-24T22:19:19.619Z,18.30
2018-05-24T22:21:47.140Z,18.20
2018-05-24T22:24:15.486Z,18.30
2018-05-24T22:26:43.007Z,18.30
2018-05-24T22:29:10.537Z,18.20
2018-05-24T22:31:38.830Z,18.30
2018-05-24T22:34:06.351Z,18.20
2018-05-24T22:36:33.876Z,18.30
2018-05-24T22:39:01.400Z,18.30
2018-05-24T22:41:29.689Z,18.30
2018-05-24T22:43:57.220Z,18.30
2018-05-24T22:46:24.739Z,18.20
2018-05-24T22:48:52.263Z,18.20
2018-05-24T22:51:19.789Z,18.20
2018-05-24T22:53:47.320Z,18.10
2018-05-24T22:56:14.853Z,18.10
2018-05-24T22:58:42.387Z,18.10
2018-05-24T23:01:09.899Z,18.10
2018-05-24T23:03:37.435Z,18.10
2018-05-24T23:06:04.960Z,18.20
2018-05-24T23:08:33.248Z,18.10
2018-05-24T23:11:00.764Z,18.10
2018-05-24T23:13:28.283Z,18.20
2018-05-24T23:15:55.812Z,18.20
2018-05-24T23:18:23.365Z,18.10
2018-05-24T23:20:50.887Z,18.10
2018-05-24T23:23:18.426Z,18.10
2018-05-24T23:25:46.071Z,18.10
2018-05-24T23:28:13.591Z,18.00
2018-05-24T23:30:41.107Z,18.10
2018-05-24T23:33:08.629Z,18.00
2018-05-24T23:35:36.155Z,17.90
2018-05-24T23:38:03.680Z,17.90
2018-05-24T23:40:31.981Z,18.00
2018-05-24T23:42:59.503Z,18.00
2018-05-24T23:45:27.048Z,18.00
2018-05-24T23:47:54.568Z,18.00
2018-05-24T23:50:22.111Z,18.00
2018-05-24T23:52:49.627Z,18.00
2018-05-24T23:55:17.175Z,18.00
2018-05-24T23:57:44.699Z,18.00
